Time;durP1;ratioP1;P1;durP2;ratioP2;P2;SDS_P1;SDS_P2;PMS_P1;PMS_P2;Temp;Humidity;BMP_temperature;BMP_pressure;BME280_temperature;BME280_humidity;BME280_pressure;Samples;Min_cycle;Max_cycle;Signal;HPM_P1;HPM_P2
2022/08/03 00:02:12;;;;;;;3.53;3.22;;;;;;;20.47;61.30;98901.34;5053346;28;20039;-78
2022/08/03 00:04:37;;;;;;;3.83;3.53;;;;;;;20.50;61.48;98908.84;5071891;28;20434;-78
2022/08/03 00:07:03;;;;;;;3.72;3.08;;;;;;;20.44;61.86;98899.25;5070351;28;20134;-78
2022/08/03 00:09:29;;;;;;;3.80;3.22;;;;;;;20.35;61.66;98901.13;5070470;28;20047;-78
2022/08/03 00:11:55;;;;;;;3.10;2.90;;;;;;;20.30;61.86;98900.44;5070317;28;20029;-78
2022/08/03 00:14:20;;;;;;;4.53;3.47;;;;;;;20.39;61.66;98902.09;5070324;28;20032;-78
2022/08/03 00:16:46;;;;;;;3.65;3.35;;;;;;;20.29;61.86;98907.75;5053609;28;20404;-78
2022/08/03 00:19:11;;;;;;;3.63;3.33;;;;;;;20.35;61.59;98894.91;5070320;28;20032;-78
2022/08/03 00:21:37;;;;;;;4.13;3.70;;;;;;;20.24;61.82;98896.25;5070550;28;20136;-78
2022/08/03 00:24:02;;;;;;;3.60;3.30;;;;;;;20.23;61.55;98890.03;5070760;28;20032;-78
2022/08/03 00:26:28;;;;;;;3.03;2.80;;;;;;;20.21;61.58;98886.84;5070355;28;20034;-78
2022/08/03 00:28:53;;;;;;;3.83;3.53;;;;;;;20.18;61.72;98876.59;5070339;28;20480;-78
2022/08/03 00:31:19;;;;;;;3.80;3.40;;;;;;;20.23;61.96;98887.31;5054249;28;20028;-77
2022/08/03 00:33:44;;;;;;;3.25;3.05;;;;;;;20.09;61.90;98889.28;5072083;28;20055;-78
2022/08/03 00:36:09;;;;;;;3.15;2.95;;;;;;;20.17;61.96;98900.19;5053779;28;20028;-78
2022/08/03 00:38:35;;;;;;;4.22;3.42;;;;;;;19.93;62.03;98882.63;5070193;28;20036;-78
2022/08/03 00:41:00;;;;;;;3.67;3.33;;;;;;;20.14;62.00;98879.13;5053634;28;20028;-78
2022/08/03 00:43:26;;;;;;;3.92;3.58;;;;;;;20.02;62.07;98881.59;5053742;28;20547;-78
2022/08/03 00:45:53;;;;;;;3.33;3.03;;;;;;;19.96;62.14;98890.16;5070585;28;20369;-77
2022/08/03 00:48:19;;;;;;;4.50;3.50;;;;;;;19.96;62.15;98896.34;5070142;28;20025;-78
2022/08/03 00:50:45;;;;;;;3.33;3.13;;;;;;;19.72;62.85;98886.94;5070406;28;20424;-78
2022/08/03 00:53:12;;;;;;;3.58;3.30;;;;;;;19.42;64.52;98900.06;5053803;28;20062;-78
2022/08/03 00:55:38;;;;;;;3.80;3.50;;;;;;;20.14;61.90;98899.97;5070274;28;20043;-78
2022/08/03 00:58:06;;;;;;;3.65;3.35;;;;;;;19.92;62.07;98878.34;5070075;28;20028;-78
2022/08/03 01:00:35;;;;;;;4.00;3.67;;;;;;;19.89;62.26;98889.78;5070302;28;20082;-78
2022/08/03 01:03:01;;;;;;;5.03;2.90;;;;;;;19.81;62.89;98891.31;5070305;28;20020;-78
2022/08/03 01:05:27;;;;;;;3.60;3.30;;;;;;;19.82;62.42;98881.28;5071403;28;20033;-78
2022/08/03 01:08:07;;;;;;;4.55;3.60;;;;;;;19.75;62.61;98891.75;5070186;28;20024;-78
2022/08/03 01:11:10;;;;;;;3.70;3.50;;;;;;;19.80;62.50;98895.16;5053672;28;20372;-78
2022/08/03 01:13:54;;;;;;;3.60;3.38;;;;;;;19.58;63.85;98887.00;5073300;28;20031;-78
2022/08/03 01:16:28;;;;;;;3.67;3.38;;;;;;;19.59;63.29;98885.09;5074082;28;20060;-78
2022/08/03 01:19:27;;;;;;;4.32;3.92;;;;;;;19.70;62.97;98886.47;5074144;28;20081;-78
2022/08/03 01:22:06;;;;;;;5.05;3.40;;;;;;;19.88;62.46;98891.69;5075433;28;20021;-78
2022/08/03 01:24:49;;;;;;;3.78;3.47;;;;;;;19.67;62.28;98882.44;5075554;28;20487;-78
2022/08/03 01:27:24;;;;;;;3.75;3.45;;;;;;;19.59;62.63;98875.06;5074990;28;20537;-78
2022/08/03 01:30:08;;;;;;;3.70;3.27;;;;;;;19.51;63.04;98874.97;5074235;28;20040;-78
2022/08/03 01:32:35;;;;;;;3.40;3.20;;;;;;;19.66;62.71;98893.59;5074112;28;20409;-78
2022/08/03 01:35:07;;;;;;;3.30;3.00;;;;;;;19.49;63.00;98867.16;5075222;28;20476;-78
2022/08/03 01:37:41;;;;;;;3.55;3.25;;;;;;;19.60;62.95;98883.97;5074768;28;20620;-77
2022/08/03 01:40:09;;;;;;;3.75;3.40;;;;;;;19.60;62.91;98884.78;5074768;28;20071;-78
2022/08/03 01:42:37;;;;;;;4.35;3.38;;;;;;;19.41;63.15;98871.41;5075072;28;20032;-77
2022/08/03 01:45:03;;;;;;;4.57;3.40;;;;;;;19.48;63.26;98878.31;5073581;28;20656;-78
2022/08/03 01:47:29;;;;;;;3.83;3.53;;;;;;;19.42;63.02;98869.47;5073299;28;20420;-78
2022/08/03 01:49:57;;;;;;;5.18;3.65;;;;;;;19.54;63.17;98885.19;5073524;28;20017;-78
2022/08/03 01:52:25;;;;;;;3.70;3.40;;;;;;;19.53;63.08;98878.97;5073460;28;20049;-78
2022/08/03 01:54:52;;;;;;;3.38;3.13;;;;;;;19.39;63.63;98868.22;5056806;28;20029;-77
2022/08/03 01:57:20;;;;;;;3.90;3.60;;;;;;;19.47;63.07;98874.78;5073316;28;20029;-78
2022/08/03 01:59:48;;;;;;;5.68;3.47;;;;;;;19.44;63.34;98875.38;5073390;28;20025;-78
2022/08/03 02:02:15;;;;;;;4.13;3.30;;;;;;;19.34;63.26;98871.03;5073206;28;20531;-78
2022/08/03 02:04:42;;;;;;;3.38;3.08;;;;;;;19.20;63.27;98859.38;5074652;28;20043;-77
2022/08/03 02:07:09;;;;;;;4.80;3.85;;;;;;;19.05;65.25;98884.06;5074496;28;20055;-77
2022/08/03 02:09:38;;;;;;;3.45;3.15;;;;;;;18.82;65.56;98868.88;5073503;28;20104;-77
2022/08/03 02:12:08;;;;;;;3.50;3.22;;;;;;;19.23;63.46;98861.50;5073044;28;20366;-77
2022/08/03 02:14:34;;;;;;;3.72;3.42;;;;;;;19.23;63.29;98856.09;5073272;28;20040;-77
2022/08/03 02:17:00;;;;;;;4.03;3.25;;;;;;;19.14;63.59;98870.63;5074156;28;20523;-77
2022/08/03 02:19:27;;;;;;;4.07;3.80;;;;;;;19.27;63.31;98875.22;5056387;28;20028;-77
2022/08/03 02:21:53;;;;;;;4.47;3.65;;;;;;;19.31;63.39;98877.00;5056313;28;20032;-78
2022/08/03 02:24:18;;;;;;;3.20;3.00;;;;;;;19.38;63.29;98882.84;5074217;28;20028;-77
2022/08/03 02:26:45;;;;;;;3.90;3.47;;;;;;;19.38;63.36;98880.13;5073716;28;20036;-77
2022/08/03 02:29:15;;;;;;;4.35;3.95;;;;;;;19.36;63.08;98882.34;5073036;28;20500;-78
2022/08/03 02:31:42;;;;;;;5.00;3.40;;;;;;;18.93;64.52;98878.38;5073881;28;20021;-77
2022/08/03 02:34:12;;;;;;;3.78;3.30;;;;;;;18.33;66.93;98869.50;5072564;28;20123;-78
2022/08/03 02:36:41;;;;;;;4.55;3.78;;;;;;;18.24;66.82;98859.69;5072731;28;20051;-77
2022/08/03 02:39:10;;;;;;;4.53;3.72;;;;;;;18.74;65.28;98871.47;5073253;28;20036;-78
2022/08/03 02:41:49;;;;;;;4.07;3.67;;;;;;;19.01;64.01;98860.63;5072838;28;20174;-78
2022/08/03 02:44:17;;;;;;;3.72;3.40;;;;;;;19.02;63.90;98854.94;5074021;28;20029;-78
2022/08/03 02:46:45;;;;;;;3.58;3.28;;;;;;;18.97;64.24;98859.63;5073509;28;20068;-78
2022/08/03 02:49:13;;;;;;;3.22;2.92;;;;;;;19.03;64.38;98855.69;5072541;28;20073;-78
2022/08/03 02:51:40;;;;;;;3.30;3.10;;;;;;;18.96;64.08;98858.03;5073514;28;20021;-78
2022/08/03 02:54:08;;;;;;;3.75;3.45;;;;;;;18.83;64.76;98853.44;5074022;28;20056;-78
2022/08/03 02:56:35;;;;;;;3.70;3.40;;;;;;;18.82;64.77;98868.88;5072112;28;20032;-77
2022/08/03 02:59:01;;;;;;;3.50;3.10;;;;;;;18.78;64.36;98867.88;5072615;28;20055;-78
2022/08/03 03:01:28;;;;;;;3.83;3.53;;;;;;;18.91;64.01;98861.66;5072461;28;20028;-77
2022/08/03 03:03:56;;;;;;;3.75;3.45;;;;;;;18.93;64.58;98870.25;5072277;28;20033;-78
2022/08/03 03:06:26;;;;;;;3.58;3.17;;;;;;;18.98;64.27;98872.06;5072316;28;20029;-77
2022/08/03 03:08:53;;;;;;;3.53;3.33;;;;;;;18.78;64.36;98857.06;5071920;28;20021;-77
2022/08/03 03:11:22;;;;;;;4.35;3.90;;;;;;;18.09;68.95;98859.94;5072287;28;20146;-77
2022/08/03 03:13:48;;;;;;;3.75;3.50;;;;;;;18.04;67.98;98868.94;5073446;28;20024;-78
2022/08/03 03:16:15;;;;;;;4.50;3.90;;;;;;;18.01;68.24;98858.72;5071930;28;20039;-77
2022/08/03 03:18:43;;;;;;;4.00;3.70;;;;;;;18.02;66.70;98854.13;5071708;28;20033;-78
2022/08/03 03:21:09;;;;;;;3.75;3.45;;;;;;;18.16;66.20;98861.16;5072083;28;20130;-77
2022/08/03 03:23:39;;;;;;;4.32;3.35;;;;;;;18.65;65.07;98869.44;5072031;28;20135;-77
2022/08/03 03:26:06;;;;;;;4.18;3.53;;;;;;;18.70;64.70;98868.56;5073370;28;20028;-78
2022/08/03 03:28:32;;;;;;;3.67;3.38;;;;;;;18.75;64.43;98873.88;5071499;28;20025;-77
2022/08/03 03:30:58;;;;;;;3.63;3.33;;;;;;;18.57;64.18;98848.53;5071820;28;20101;-77
2022/08/03 03:33:24;;;;;;;4.45;3.58;;;;;;;18.74;64.36;98872.25;5071817;28;20036;-78
2022/08/03 03:35:50;;;;;;;4.07;3.38;;;;;;;18.70;65.00;98857.72;5071581;28;20028;-78
2022/08/03 03:38:18;;;;;;;3.80;3.50;;;;;;;18.64;64.33;98848.13;5071261;28;20531;-78
2022/08/03 03:40:44;;;;;;;3.67;3.38;;;;;;;18.75;64.49;98864.94;5072672;28;20029;-78
2022/08/03 03:43:11;;;;;;;3.67;3.15;;;;;;;18.77;64.36;98870.84;5088116;28;20029;-78
2022/08/03 03:45:37;;;;;;;3.83;3.53;;;;;;;18.72;64.82;98874.47;5071853;28;20039;-78
2022/08/03 03:48:04;;;;;;;4.03;3.63;;;;;;;18.52;65.03;98842.44;5072540;28;20464;-77
2022/08/03 03:50:31;;;;;;;4.22;3.30;;;;;;;18.47;65.25;98861.44;5071254;28;20035;-78
2022/08/03 03:52:56;;;;;;;4.00;3.70;;;;;;;18.34;66.06;98863.00;5071472;28;20353;-79
2022/08/03 03:55:22;;;;;;;4.53;3.60;;;;;;;17.73;70.18;98878.63;5071199;28;20032;-77
2022/08/03 03:57:47;;;;;;;4.47;4.07;;;;;;;17.38;71.41;98858.34;5072567;28;20028;-77
2022/08/03 04:00:15;;;;;;;3.75;3.50;;;;;;;17.37;69.33;98864.03;5072456;28;20035;-77
2022/08/03 04:02:40;;;;;;;5.78;3.67;;;;;;;17.90;67.04;98862.69;5088155;28;20407;-78
2022/08/03 04:11:09;;;;;;;3.83;3.47;;;;;;;18.22;66.16;98875.38;5071815;28;20506;-77
2022/08/03 04:13:55;;;;;;;3.72;3.42;;;;;;;18.37;65.52;98878.59;5071142;28;20115;-77
2022/08/03 04:16:27;;;;;;;4.55;3.53;;;;;;;18.31;66.10;98887.91;5071040;28;20029;-77
2022/08/03 04:19:17;;;;;;;3.45;3.15;;;;;;;18.30;66.10;98885.50;5054360;28;20028;-77
2022/08/03 04:21:47;;;;;;;3.80;3.50;;;;;;;18.43;65.71;98884.75;5071045;28;20032;-77
2022/08/03 04:24:14;;;;;;;3.72;3.42;;;;;;;18.45;65.68;98885.28;5070897;28;20028;-77
2022/08/03 04:26:42;;;;;;;4.07;2.97;;;;;;;18.37;65.73;98883.22;5070767;28;20670;-77
2022/08/03 04:29:09;;;;;;;5.18;3.28;;;;;;;18.23;66.77;98868.88;5071034;28;20024;-77
2022/08/03 04:31:37;;;;;;;5.65;4.18;;;;;;;17.87;71.47;98890.28;5071020;28;20136;-77
2022/08/03 04:34:03;;;;;;;4.60;4.20;;;;;;;17.74;72.11;98872.94;5070754;28;20122;-77
2022/08/03 04:36:31;;;;;;;5.93;3.95;;;;;;;17.73;73.88;98894.84;5070578;28;20028;-77
2022/08/03 04:39:09;;;;;;;5.18;4.03;;;;;;;17.82;74.10;98901.19;5071807;28;20032;-77
2022/08/03 04:41:35;;;;;;;3.70;3.40;;;;;;;17.85;73.11;98901.38;5070852;28;20094;-77
2022/08/03 04:44:03;;;;;;;4.80;4.40;;;;;;;17.88;74.72;98905.41;5053919;28;20040;-78
2022/08/03 04:46:33;;;;;;;5.05;4.55;;;;;;;17.97;74.67;98900.94;5070523;28;20111;-77
2022/08/03 04:49:00;;;;;;;7.78;4.47;;;;;;;17.97;74.35;98907.13;5053318;28;20120;-77
2022/08/03 04:51:25;;;;;;;4.72;4.32;;;;;;;18.02;74.39;98900.06;5071848;28;20526;-77
2022/08/03 04:53:51;;;;;;;4.18;3.83;;;;;;;18.11;74.88;98901.75;5070476;28;20059;-77
2022/08/03 04:56:16;;;;;;;8.32;4.40;;;;;;;18.06;74.16;98892.97;5070544;28;20059;-77
2022/08/03 04:58:42;;;;;;;4.07;3.78;;;;;;;18.19;75.01;98898.41;5070459;28;20383;-77
2022/08/03 05:01:07;;;;;;;4.50;4.10;;;;;;;18.26;75.35;98903.44;5053794;28;20032;-77
2022/08/03 05:03:33;;;;;;;5.50;3.83;;;;;;;18.26;74.51;98912.31;5070383;28;20029;-77
2022/08/03 05:05:58;;;;;;;5.80;5.05;;;;;;;18.17;73.90;98907.91;5071823;28;20497;-77
2022/08/03 05:08:23;;;;;;;6.70;4.80;;;;;;;18.14;74.10;98917.41;5071538;28;20468;-77
2022/08/03 05:10:49;;;;;;;7.43;4.63;;;;;;;18.22;74.60;98914.00;5071750;28;20109;-77
2022/08/03 05:13:14;;;;;;;5.03;4.20;;;;;;;18.28;74.38;98912.81;5053690;28;20032;-77
2022/08/03 05:15:43;;;;;;;6.00;5.30;;;;;;;18.26;73.80;98903.44;5070498;28;20037;-77
2022/08/03 05:18:08;;;;;;;5.47;4.90;;;;;;;18.24;74.47;98897.53;5069850;28;20464;-77
2022/08/03 05:20:34;;;;;;;7.30;4.47;;;;;;;18.30;74.16;98893.63;5070144;28;20039;-77
2022/08/03 05:23:00;;;;;;;8.60;4.75;;;;;;;18.48;73.64;98908.97;5070344;28;20384;-77
2022/08/03 05:25:26;;;;;;;8.07;4.70;;;;;;;18.58;73.64;98906.91;5053702;28;20567;-77
2022/08/03 05:27:52;;;;;;;6.45;4.82;;;;;;;18.63;73.47;98903.31;5071479;28;20032;-77
2022/08/03 05:30:18;;;;;;;7.03;3.72;;;;;;;18.71;70.19;98880.97;5070140;28;20044;-78
2022/08/03 05:32:43;;;;;;;3.72;3.33;;;;;;;19.21;68.71;98898.88;5071269;28;20476;-78
2022/08/03 05:35:09;;;;;;;4.35;3.58;;;;;;;19.26;68.13;98901.47;5070106;28;20029;-78
2022/08/03 05:37:34;;;;;;;7.25;4.75;;;;;;;19.44;70.14;98905.97;5069970;28;20082;-78
2022/08/03 05:39:59;;;;;;;4.43;3.90;;;;;;;19.89;64.64;98900.63;5071161;28;20537;-78
2022/08/03 05:42:25;;;;;;;6.68;3.40;;;;;;;19.75;65.82;98891.75;5053539;28;20040;-78
2022/08/03 05:44:50;;;;;;;3.55;3.25;;;;;;;20.06;66.31;98908.88;5070175;28;20029;-78
2022/08/03 05:47:16;;;;;;;4.38;3.38;;;;;;;19.85;65.47;98884.19;5069837;28;20036;-78
2022/08/03 05:49:41;;;;;;;8.65;4.28;;;;;;;19.53;70.71;98902.56;5071401;28;20476;-78
2022/08/03 05:52:06;;;;;;;5.72;3.92;;;;;;;19.31;70.62;98890.53;5069960;28;20037;-77
2022/08/03 05:54:32;;;;;;;4.00;3.70;;;;;;;19.59;66.50;98893.22;5053343;28;20032;-78
2022/08/03 05:56:57;;;;;;;4.20;3.80;;;;;;;19.44;70.88;98902.47;5052907;28;20033;-78
2022/08/03 05:59:24;;;;;;;5.35;4.13;;;;;;;19.72;66.79;98892.38;5069587;28;20029;-78
2022/08/03 06:01:50;;;;;;;5.32;3.10;;;;;;;19.92;66.32;98905.44;5056632;28;20048;-78
2022/08/03 06:04:15;;;;;;;3.25;2.97;;;;;;;20.03;66.41;98906.75;5073200;28;20058;-78
2022/08/03 06:06:42;;;;;;;8.45;3.70;;;;;;;19.74;69.38;98896.38;5073376;28;20028;-78
2022/08/03 06:09:08;;;;;;;4.85;4.32;;;;;;;19.44;70.36;98892.44;5073447;28;20123;-77
2022/08/03 06:11:34;;;;;;;4.32;3.85;;;;;;;19.27;71.05;98892.25;5056935;28;20434;-78
2022/08/03 06:13:59;;;;;;;4.30;4.00;;;;;;;19.18;70.96;98896.78;5056878;28;20033;-78
2022/08/03 06:16:24;;;;;;;5.32;4.32;;;;;;;19.45;69.72;98893.25;5056373;28;20093;-77
2022/08/03 06:18:50;;;;;;;3.22;3.00;;;;;;;19.88;67.33;98910.66;5074382;28;20032;-78
2022/08/03 06:21:15;;;;;;;5.43;3.97;;;;;;;19.78;68.96;98907.38;5074182;28;20392;-77
2022/08/03 06:23:42;;;;;;;5.70;4.20;;;;;;;19.93;68.70;98915.97;5072988;28;20033;-78
2022/08/03 06:26:07;;;;;;;4.28;3.47;;;;;;;19.65;68.58;98884.66;5072928;28;20077;-77
2022/08/03 06:28:33;;;;;;;2.88;2.67;;;;;;;20.12;66.32;98907.63;5056289;28;20029;-78
2022/08/03 06:30:58;;;;;;;3.70;3.35;;;;;;;20.46;64.72;98904.38;5072888;28;20028;-78
2022/08/03 06:33:25;;;;;;;4.60;3.67;;;;;;;20.41;67.85;98899.06;5072911;28;20032;-78
2022/08/03 06:35:50;;;;;;;3.50;3.30;;;;;;;20.33;66.59;98889.78;5056512;28;20533;-78
2022/08/03 06:38:16;;;;;;;6.80;3.72;;;;;;;20.60;66.61;98908.56;5073347;28;20024;-77
2022/08/03 06:40:41;;;;;;;3.53;3.20;;;;;;;20.77;63.86;98895.09;5055882;28;20032;-78
2022/08/03 06:43:07;;;;;;;4.35;3.95;;;;;;;20.48;67.07;98888.59;5072646;28;20037;-78
2022/08/03 06:45:33;;;;;;;7.78;4.05;;;;;;;20.52;67.12;98905.81;5055961;28;20052;-78
2022/08/03 06:48:06;;;;;;;6.13;3.83;;;;;;;20.27;67.67;98901.06;5073852;28;20484;-78
2022/08/03 06:50:33;;;;;;;5.35;3.70;;;;;;;20.36;68.03;98901.91;5056163;28;20388;-78
2022/08/03 06:53:00;;;;;;;3.30;3.00;;;;;;;20.85;64.40;98920.66;5073817;28;20032;-77
2022/08/03 06:55:25;;;;;;;3.45;3.17;;;;;;;20.82;66.46;98902.28;5072380;28;20120;-78
2022/08/03 06:57:51;;;;;;;3.00;2.80;;;;;;;20.89;64.36;98894.50;5072240;28;20128;-78
2022/08/03 07:00:17;;;;;;;5.10;3.45;;;;;;;21.01;65.46;98904.75;5072109;28;20085;-78
2022/08/03 07:02:42;;;;;;;2.90;2.70;;;;;;;21.08;64.38;98908.63;5072312;28;20032;-78
2022/08/03 07:05:09;;;;;;;4.63;3.85;;;;;;;21.23;66.63;98918.25;5073715;28;20034;-78
2022/08/03 07:07:35;;;;;;;6.07;2.97;;;;;;;21.18;66.75;98919.22;5073559;28;20383;-78
2022/08/03 07:10:00;;;;;;;5.28;3.42;;;;;;;21.32;65.75;98902.75;5072184;28;20527;-78
2022/08/03 07:12:27;;;;;;;3.63;3.03;;;;;;;21.69;62.55;98918.47;5071876;28;20438;-78
2022/08/03 07:14:54;;;;;;;7.88;3.85;;;;;;;21.48;64.96;98909.34;5072023;28;20028;-78
2022/08/03 07:17:19;;;;;;;6.32;3.67;;;;;;;21.55;64.54;98896.91;5071836;28;20120;-78
2022/08/03 07:19:45;;;;;;;5.60;3.40;;;;;;;21.70;64.51;98909.22;5071725;28;20124;-77
2022/08/03 07:22:10;;;;;;;6.05;3.20;;;;;;;21.99;63.50;98916.75;5073238;28;20036;-78
2022/08/03 07:24:36;;;;;;;5.00;2.80;;;;;;;21.87;63.74;98913.88;5055154;28;20503;-78
2022/08/03 07:27:01;;;;;;;4.47;4.07;;;;;;;21.81;64.09;98898.81;5054903;28;20563;-78
2022/08/03 07:29:27;;;;;;;6.40;3.70;;;;;;;21.78;63.20;98910.31;5072991;28;20028;-78
2022/08/03 07:31:52;;;;;;;5.30;3.08;;;;;;;21.93;64.81;98913.38;5071744;28;20025;-77
2022/08/03 07:34:18;;;;;;;3.75;3.28;;;;;;;22.38;61.51;98911.91;5071729;28;20102;-78
2022/08/03 07:36:43;;;;;;;6.72;3.08;;;;;;;22.37;61.73;98893.97;5054545;28;20508;-78
2022/08/03 07:39:08;;;;;;;4.20;3.25;;;;;;;22.26;63.40;98922.63;5070965;28;20060;-78
2022/08/03 07:41:34;;;;;;;3.60;3.08;;;;;;;22.27;62.06;98910.63;5071434;28;20033;-78
2022/08/03 07:43:59;;;;;;;3.75;2.90;;;;;;;22.78;60.29;98919.81;5072549;28;20094;-78
2022/08/03 07:46:25;;;;;;;8.38;3.53;;;;;;;22.68;62.13;98928.31;5071298;28;20380;-78
2022/08/03 07:48:50;;;;;;;6.00;3.05;;;;;;;22.65;61.66;98912.66;5072486;28;20104;-78
2022/08/03 07:51:16;;;;;;;3.40;3.10;;;;;;;22.72;61.42;98916.44;5071354;28;20158;-78
2022/08/03 07:53:41;;;;;;;6.53;3.13;;;;;;;22.88;60.77;98917.50;5072377;28;20032;-78
2022/08/03 07:56:07;;;;;;;4.70;3.17;;;;;;;22.99;60.29;98907.03;5071344;28;20024;-77
2022/08/03 07:58:34;;;;;;;4.20;3.05;;;;;;;23.05;60.44;98908.44;5054055;28;20124;-78
2022/08/03 08:01:00;;;;;;;5.57;2.72;;;;;;;23.15;60.72;98901.84;5071129;28;20035;-78
2022/08/03 08:03:25;;;;;;;3.05;2.85;;;;;;;23.46;59.43;98918.66;5071096;28;20028;-78
2022/08/03 08:05:52;;;;;;;4.20;2.70;;;;;;;23.63;58.77;98913.88;5072151;28;20036;-78
2022/08/03 08:08:18;;;;;;;3.03;2.83;;;;;;;23.49;60.33;98905.16;5070914;28;20047;-78
2022/08/03 08:10:44;;;;;;;4.97;2.67;;;;;;;23.46;58.62;98894.91;5071110;28;20723;-78
2022/08/03 08:13:10;;;;;;;3.53;2.67;;;;;;;23.53;57.99;98889.75;5070954;28;20024;-78
2022/08/03 08:15:35;;;;;;;3.90;2.90;;;;;;;23.65;57.87;98889.84;5054171;28;20103;-78
2022/08/03 08:18:01;;;;;;;2.75;2.45;;;;;;;23.74;56.58;98889.75;5054074;28;20078;-78
2022/08/03 08:20:32;;;;;;;2.88;2.47;;;;;;;23.90;56.23;98889.91;5072192;28;20025;-78
2022/08/03 08:22:59;;;;;;;3.50;2.25;;;;;;;23.98;53.42;98899.97;5070347;28;20123;-78
2022/08/03 08:25:25;;;;;;;5.32;2.97;;;;;;;24.04;55.28;98890.44;5070738;28;20066;-78
2022/08/03 08:27:50;;;;;;;2.72;2.47;;;;;;;24.28;53.35;98901.47;5071773;28;20502;-78
2022/08/03 08:30:18;;;;;;;2.20;2.10;;;;;;;24.27;54.24;98897.13;5054004;28;20244;-78
2022/08/03 08:32:44;;;;;;;3.25;2.30;;;;;;;24.49;53.47;98892.06;5070698;28;20542;-78
2022/08/03 08:35:10;;;;;;;2.58;2.38;;;;;;;24.54;55.07;98880.16;5071793;28;20032;-78
2022/08/03 08:37:37;;;;;;;4.13;2.38;;;;;;;24.65;51.69;98875.84;5071438;28;20052;-78
2022/08/03 08:40:04;;;;;;;3.15;2.22;;;;;;;24.81;51.84;98879.53;5070489;28;20025;-78
2022/08/03 08:42:31;;;;;;;1.85;1.75;;;;;;;24.93;51.47;98871.34;5053629;28;20090;-78
2022/08/03 08:44:56;;;;;;;2.45;2.25;;;;;;;25.16;52.82;98880.63;5088043;28;20024;-78
2022/08/03 08:47:24;;;;;;;4.15;2.55;;;;;;;25.12;52.06;98879.72;5070381;28;20029;-78
2022/08/03 08:49:54;;;;;;;4.05;2.50;;;;;;;25.07;52.58;98869.06;5070526;28;20032;-78
2022/08/03 08:52:28;;;;;;;2.75;2.10;;;;;;;25.29;51.00;98879.47;5070359;28;20051;-78
2022/08/03 08:55:06;;;;;;;4.65;2.55;;;;;;;25.26;52.27;98872.00;5070222;28;20028;-78
2022/08/03 08:57:45;;;;;;;2.40;2.20;;;;;;;25.36;51.71;98883.59;5053552;28;20553;-78
2022/08/03 09:00:13;;;;;;;5.35;2.38;;;;;;;25.44;51.43;98879.97;5070197;28;20361;-78
2022/08/03 09:02:41;;;;;;;2.22;2.10;;;;;;;25.46;51.39;98877.66;5070375;28;20020;-78
2022/08/03 09:05:12;;;;;;;2.65;2.10;;;;;;;25.44;49.26;98861.63;5070204;28;20024;-78
2022/08/03 09:07:38;;;;;;;3.72;2.20;;;;;;;25.61;50.16;98874.22;5070490;28;20032;-78
2022/08/03 09:10:06;;;;;;;3.53;2.47;;;;;;;25.65;50.15;98869.63;5071449;28;20035;-78
2022/08/03 09:12:37;;;;;;;4.22;2.40;;;;;;;25.68;50.00;98864.28;5070395;28;20034;-78
2022/08/03 09:15:20;;;;;;;2.25;2.05;;;;;;;25.69;50.29;98871.34;5071547;28;20032;-78
2022/08/03 09:17:46;;;;;;;3.75;1.85;;;;;;;25.83;49.44;98862.75;5070994;28;20472;-78
2022/08/03 09:20:12;;;;;;;2.65;2.45;;;;;;;26.02;49.55;98877.34;5070074;28;20116;-78
2022/08/03 09:22:55;;;;;;;3.50;2.20;;;;;;;26.02;49.66;98873.81;5070163;28;20165;-78
2022/08/03 09:25:35;;;;;;;2.25;2.13;;;;;;;26.15;49.11;98866.38;5069835;28;20028;-78
2022/08/03 09:28:09;;;;;;;3.13;2.25;;;;;;;26.04;49.14;98869.59;5069782;28;20380;-78
2022/08/03 09:30:38;;;;;;;3.67;2.38;;;;;;;26.10;48.92;98869.38;5070485;28;20035;-78
2022/08/03 09:33:08;;;;;;;2.10;2.00;;;;;;;26.18;49.37;98871.97;5070074;28;20035;-78
2022/08/03 09:36:00;;;;;;;2.40;2.20;;;;;;;26.41;48.01;98872.94;5074456;28;20069;-78
2022/08/03 09:38:26;;;;;;;4.10;2.55;;;;;;;26.42;47.95;98873.75;5073044;28;20103;-78
2022/08/03 09:40:52;;;;;;;2.58;2.38;;;;;;;26.40;48.50;98874.13;5056926;28;20048;-78
2022/08/03 09:43:18;;;;;;;3.08;2.28;;;;;;;26.39;48.64;98861.56;5075009;28;20127;-78
2022/08/03 09:45:44;;;;;;;2.58;2.38;;;;;;;26.57;48.10;98868.28;5073554;28;20107;-78
2022/08/03 09:48:27;;;;;;;3.22;2.33;;;;;;;26.61;48.13;98873.84;5073507;28;20028;-78
2022/08/03 09:50:53;;;;;;;3.13;2.40;;;;;;;26.80;47.70;98876.69;5075106;28;20020;-78
2022/08/03 09:53:20;;;;;;;8.13;2.35;;;;;;;26.62;47.95;98873.53;5073428;28;20687;-78
2022/08/03 09:56:00;;;;;;;5.15;2.10;;;;;;;26.79;47.35;98855.94;5057099;28;20020;-78
2022/08/03 09:58:28;;;;;;;2.28;2.17;;;;;;;26.97;47.21;98853.63;5073575;28;20484;-78
2022/08/03 10:00:57;;;;;;;3.67;2.35;;;;;;;26.97;46.59;98859.91;5073519;28;20033;-78
2022/08/03 10:03:24;;;;;;;2.80;2.60;;;;;;;27.11;46.28;98846.53;5073275;28;20028;-78
2022/08/03 10:05:49;;;;;;;2.38;2.13;;;;;;;27.23;47.08;98845.63;5073296;28;20032;-78
2022/08/03 10:08:16;;;;;;;4.18;2.40;;;;;;;27.23;45.56;98845.63;5072789;28;20027;-78
2022/08/03 10:10:43;;;;;;;2.50;2.28;;;;;;;27.39;47.31;98854.63;5074457;28;20036;-78
2022/08/03 10:13:12;;;;;;;4.90;2.80;;;;;;;27.34;43.91;98831.00;5073039;28;20032;-78
2022/08/03 10:15:41;;;;;;;2.47;2.30;;;;;;;27.63;45.51;98820.66;5074363;28;20028;-78
2022/08/03 10:18:06;;;;;;;5.45;2.13;;;;;;;27.70;46.11;98834.50;5072803;28;20028;-78
2022/08/03 10:20:36;;;;;;;3.65;2.17;;;;;;;27.74;45.87;98847.13;5074191;28;20516;-79
2022/08/03 10:23:03;;;;;;;2.78;2.58;;;;;;;27.88;45.83;98846.63;5056219;28;20071;-78
2022/08/03 10:25:32;;;;;;;1.73;1.63;;;;;;;27.85;45.27;98842.66;5072951;28;20033;-78
2022/08/03 10:28:03;;;;;;;5.85;2.65;;;;;;;28.04;44.52;98842.69;5072507;28;20531;-78
2022/08/03 10:30:30;;;;;;;2.05;1.90;;;;;;;28.08;45.13;98832.56;5056369;28;20081;-78
2022/08/03 10:33:02;;;;;;;3.60;2.38;;;;;;;28.34;44.42;98842.03;5072435;28;20459;-79
2022/08/03 10:35:28;;;;;;;2.45;2.20;;;;;;;28.05;45.30;98840.69;5072518;28;20115;-79
2022/08/03 10:38:19;;;;;;;5.35;2.42;;;;;;;28.13;45.18;98839.69;5073755;28;20039;-78
2022/08/03 10:40:52;;;;;;;2.80;2.10;;;;;;;28.29;44.89;98836.81;5073949;28;20047;-79
2022/08/03 10:43:26;;;;;;;2.35;2.03;;;;;;;28.58;43.94;98827.94;5072338;28;20093;-79
2022/08/03 10:45:51;;;;;;;4.57;2.20;;;;;;;28.59;44.70;98802.09;5071931;28;20035;-79
2022/08/03 10:48:18;;;;;;;4.05;2.45;;;;;;;28.97;42.24;98820.31;5072144;28;20028;-79
2022/08/03 10:50:48;;;;;;;2.15;2.05;;;;;;;28.84;44.10;98812.28;5072076;28;20043;-79
2022/08/03 10:53:14;;;;;;;2.33;2.22;;;;;;;28.91;44.05;98815.16;5072379;28;20017;-79
2022/08/03 10:58:37;;;;;;;2.25;2.10;;;;;;;29.54;42.18;98815.25;5073598;28;20043;-79
2022/08/03 11:01:08;;;;;;;5.47;2.35;;;;;;;29.53;42.67;98815.63;5073483;28;20036;-79
2022/08/03 11:03:53;;;;;;;4.40;2.28;;;;;;;29.67;42.91;98813.03;5073476;28;20642;-79
2022/08/03 11:06:20;;;;;;;4.63;2.50;;;;;;;29.84;42.23;98822.72;5071986;28;20115;-79
2022/08/03 11:08:47;;;;;;;3.45;2.65;;;;;;;30.10;40.79;98809.59;5055223;28;20029;-79
2022/08/03 11:11:18;;;;;;;3.83;2.33;;;;;;;30.13;42.04;98816.31;5073345;28;20095;-79
2022/08/03 11:14:06;;;;;;;4.85;2.30;;;;;;;29.85;42.22;98791.25;5073313;28;20048;-79
2022/08/03 11:16:35;;;;;;;3.30;2.17;;;;;;;29.87;41.88;98806.22;5071946;28;20024;-79
2022/08/03 11:19:03;;;;;;;5.70;2.72;;;;;;;30.03;41.60;98804.06;5072971;28;20078;-79
2022/08/03 11:21:47;;;;;;;3.35;2.53;;;;;;;30.59;40.60;98805.75;5073066;28;20025;-79
2022/08/03 11:24:50;;;;;;;3.95;2.28;;;;;;;30.38;40.90;98809.91;5071820;28;20520;-79
2022/08/03 11:27:34;;;;;;;1.65;1.55;;;;;;;30.50;40.70;98795.06;5072755;28;20024;-79
2022/08/03 11:30:09;;;;;;;2.45;2.13;;;;;;;30.88;40.43;98799.31;5054932;28;20026;-79
2022/08/03 11:32:43;;;;;;;2.92;2.20;;;;;;;30.88;40.37;98797.34;5071615;28;20123;-79
2022/08/03 11:35:11;;;;;;;2.28;2.03;;;;;;;30.96;40.09;98796.22;5071458;28;20029;-79
2022/08/03 11:37:55;;;;;;;2.67;1.75;;;;;;;30.76;40.74;98799.56;5070947;28;20035;-79
2022/08/03 11:40:39;;;;;;;2.20;2.00;;;;;;;30.82;40.55;98795.31;5070758;28;20485;-79
2022/08/03 11:43:08;;;;;;;1.83;1.73;;;;;;;31.00;40.17;98802.53;5071476;28;20036;-79
2022/08/03 11:45:34;;;;;;;2.42;2.22;;;;;;;31.04;40.17;98786.78;5072647;28;20423;-79
2022/08/03 11:48:12;;;;;;;2.22;2.10;;;;;;;31.23;40.21;98785.72;5071043;28;20028;-79
2022/08/03 11:50:38;;;;;;;9.10;2.35;;;;;;;31.44;38.96;98793.34;5072257;28;20029;-79